Point Hope, AK

5:09 PM AKDT on July 20, 2017 (GMT -0800)
Point Hope

Weather History for PAPO - October, 2013

Change the Weather History Date:

Sunday, October 13, 2013

  Actual Average Record
Temperature  
Mean Temperature 32 °F -  
Max Temperature 33 °F 28 °F 39 °F (2016)
Min Temperature 30 °F 20 °F 6 °F (2008)
Degree Days  
Heating Degree Days 34    
Moisture  
Dew Point 28 °F    
Average Humidity 84    
Maximum Humidity 93    
Minimum Humidity 75    
Precipitation  
Precipitation 0.00 in - - ()
Sea Level Pressure  
Sea Level Pressure 29.55 in    
Wind  
Wind Speed 27 mph (NNE)    
Max Wind Speed 33 mph    
Max Gust Speed 39 mph    
Visibility 6 miles    
Events      
Averages and records for this station are not official NWS values.
T = Trace of Precipitation, MM = Missing Value Source: NWS Daily Summary

Daily Weather History Graph

Daily Weather History Graph

Search for Another Location

Airport or City:

Trip Planner

Search our weather history database for the weather conditions in past years. The results will help you decide how hot, cold, wet, or windy it might be!

Date:

Astronomy

Oct. 13, 2013 Rise Set
Actual Time 10:06 AM AKDT 7:38 PM AKDT
Civil Twilight 9:09 AM AKDT 8:35 PM AKDT
Nautical Twilight 8:03 AM AKDT 9:40 PM AKDT
Astronomical Twilight 6:55 AM AKDT 10:48 PM AKDT
Moon 6:45 PM AKDT (10/13) 1:58 AM AKDT (10/13)
Length of Visible Light 11h 26m
Length of Day
9h 31m
Waxing Gibbous, 71% of the Moon is Illuminated
Oct 13
Waxing Gibbous
Oct 18
Full
Oct 26
Last Quarter
Nov 3
New
Nov 9
First Quarter

Hourly Weather History & Observations

Time (AKDT) Temp. Windchill Dew Point Humidity Pressure Visibility Wind Dir Wind Speed Gust Speed Precip Events Conditions
12:16 AM 32.0 °F 17.6 °F 26.6 °F 80% 29.69 in 8.0 mi NNE 29.9 mph 36.8 mph N/A   Overcast
12:36 AM 32.0 °F 19.2 °F 26.6 °F 80% 29.69 in 5.0 mi NE 23.0 mph 34.5 mph N/A   Overcast
12:56 AM 32.0 °F 18.1 °F 26.6 °F 80% 29.69 in 7.0 mi NNE 27.6 mph 34.5 mph N/A   Overcast
1:16 AM 32.0 °F 18.9 °F 26.6 °F 80% 29.69 in 7.0 mi NNE 24.2 mph 31.1 mph N/A   Overcast
1:36 AM 32.0 °F 18.1 °F 26.6 °F 80% 29.69 in 5.0 mi NNE 27.6 mph 33.4 mph N/A   Overcast
1:56 AM 32.0 °F 18.1 °F 26.6 °F 80% 29.68 in 7.0 mi NNE 27.6 mph 34.5 mph N/A   Overcast
2:16 AM 32.0 °F 18.9 °F 26.6 °F 80% 29.68 in 5.0 mi NE 24.2 mph 34.5 mph N/A   Overcast
2:36 AM 32.0 °F 18.1 °F 26.6 °F 80% 29.67 in 3.0 mi NNE 27.6 mph 35.7 mph N/A   Overcast
2:56 AM 32.0 °F 17.6 °F 26.6 °F 80% 29.67 in 4.0 mi NNE 29.9 mph 34.5 mph N/A   Overcast
3:16 AM 32.0 °F 18.4 °F 26.6 °F 80% 29.67 in 5.0 mi NNE 26.5 mph 36.8 mph N/A   Overcast
3:36 AM 32.0 °F 17.6 °F 26.6 °F 80% 29.66 in 8.0 mi NNE 29.9 mph 35.7 mph N/A   Overcast
3:56 AM 32.0 °F 17.4 °F 26.6 °F 80% 29.65 in 7.0 mi NNE 31.1 mph 36.8 mph N/A   Overcast
4:16 AM 32.0 °F 17.9 °F 26.6 °F 80% 29.65 in 8.0 mi NNE 28.8 mph 38.0 mph N/A   Overcast
4:36 AM 32.0 °F 17.2 °F 26.6 °F 80% 29.64 in 10.0 mi NNE 32.2 mph 39.1 mph N/A   Overcast
5:16 AM 32.0 °F 17.0 °F 26.6 °F 80% 29.63 in 10.0 mi NNE 33.4 mph 36.8 mph N/A   Overcast
5:36 AM 32.0 °F 17.2 °F 26.6 °F 80% 29.63 in 10.0 mi NNE 32.2 mph - N/A   Overcast
5:56 AM 32.0 °F 17.4 °F 26.6 °F 80% 29.62 in 10.0 mi NNE 31.1 mph 36.8 mph N/A   Overcast
6:16 AM 32.0 °F 17.6 °F 26.6 °F 80% 29.62 in 10.0 mi NNE 29.9 mph 36.8 mph N/A   Overcast
6:36 AM 32.0 °F 17.9 °F 26.6 °F 80% 29.62 in 10.0 mi NNE 28.8 mph - N/A   Overcast
6:56 AM 32.0 °F 17.4 °F 26.6 °F 80% 29.61 in 10.0 mi NNE 31.1 mph 36.8 mph N/A   Overcast
7:16 AM 32.0 °F 17.9 °F 26.6 °F 80% 29.61 in 10.0 mi NNE 28.8 mph 34.5 mph N/A   Overcast
9:36 AM 30.2 °F 15.4 °F 26.6 °F 86% 29.58 in 2.5 mi NNE 28.8 mph 33.4 mph N/A   Overcast
9:56 AM 32.0 °F 18.1 °F 26.6 °F 80% 29.58 in 4.0 mi NNE 27.6 mph 35.7 mph N/A   Overcast
10:16 AM 32.0 °F 18.1 °F 26.6 °F 80% 29.58 in 4.0 mi NNE 27.6 mph 33.4 mph N/A   Overcast
10:36 AM 32.0 °F 17.6 °F 26.6 °F 80% 29.58 in 4.0 mi NNE 29.9 mph 33.4 mph N/A   Overcast
11:16 AM 30.2 °F 15.4 °F 28.4 °F 93% 29.56 in 2.0 mi NNE 28.8 mph 33.4 mph N/A   Overcast
11:36 AM 30.2 °F 15.7 °F 28.4 °F 93% 29.56 in 2.0 mi NNE 27.6 mph 32.2 mph N/A   Overcast
11:56 AM 30.2 °F 16.5 °F 28.4 °F 93% 29.56 in 3.0 mi NNE 24.2 mph 32.2 mph N/A   Overcast
12:16 PM 30.2 °F 15.9 °F 28.4 °F 93% 29.55 in 1.5 mi NNE 26.5 mph - N/A   Overcast
12:36 PM 32.0 °F 19.2 °F 28.4 °F 87% 29.55 in 1.8 mi NNE 23.0 mph 28.8 mph N/A   Overcast
1:16 PM 30.2 °F 16.2 °F 28.4 °F 93% 29.54 in 3.0 mi NNE 25.3 mph - N/A   Overcast
1:36 PM 30.2 °F 16.5 °F 28.4 °F 93% 29.54 in 1.5 mi NNE 24.2 mph 29.9 mph N/A   Overcast
1:56 PM 30.2 °F 16.8 °F 28.4 °F 93% 29.53 in 1.8 mi NNE 23.0 mph - N/A   Overcast
2:16 PM 30.2 °F 16.2 °F 28.4 °F 93% 29.53 in 1.8 mi NNE 25.3 mph - N/A   Overcast
2:36 PM 30.2 °F 17.4 °F 28.4 °F 93% 29.53 in 3.0 mi NNE 20.7 mph - N/A   Overcast
2:56 PM 30.2 °F 15.9 °F 28.4 °F 93% 29.52 in 4.0 mi NNE 26.5 mph - N/A   Overcast
3:16 PM 32.0 °F 18.6 °F 28.4 °F 87% 29.51 in 2.0 mi NNE 25.3 mph - N/A   Overcast
3:36 PM 32.0 °F 18.9 °F 28.4 °F 87% 29.50 in 3.0 mi NNE 24.2 mph - N/A   Overcast
3:56 PM 32.0 °F 18.6 °F 28.4 °F 87% 29.50 in 3.0 mi NNE 25.3 mph - N/A   Overcast
4:16 PM 32.0 °F 18.6 °F 28.4 °F 87% 29.49 in 2.5 mi NNE 25.3 mph - N/A   Overcast
4:36 PM 32.0 °F 18.9 °F 28.4 °F 87% 29.48 in 3.0 mi NNE 24.2 mph - N/A   Overcast
4:56 PM 32.0 °F 19.2 °F 28.4 °F 87% 29.48 in 5.0 mi NNE 23.0 mph 26.5 mph N/A   Overcast
5:16 PM 32.0 °F 19.2 °F 28.4 °F 87% 29.47 in 5.0 mi NNE 23.0 mph - N/A   Overcast
5:36 PM 32.0 °F 19.5 °F 28.4 °F 87% 29.47 in 5.0 mi NNE 21.9 mph - N/A   Overcast
5:56 PM 32.0 °F 19.2 °F 28.4 °F 87% 29.47 in 4.0 mi NNE 23.0 mph - N/A   Overcast
6:16 PM 32.0 °F 19.5 °F 28.4 °F 87% 29.47 in 4.0 mi NNE 21.9 mph - N/A   Overcast
6:36 PM 32.0 °F 19.5 °F 28.4 °F 87% 29.47 in 4.0 mi NNE 21.9 mph - N/A   Overcast
7:16 PM 32.0 °F 19.5 °F 28.4 °F 87% 29.46 in 4.0 mi NNE 21.9 mph - N/A   Overcast
7:36 PM 32.0 °F 20.1 °F 28.4 °F 87% 29.46 in 10.0 mi NNE 19.6 mph - N/A   Overcast
7:56 PM 32.0 °F 20.5 °F 28.4 °F 87% 29.46 in 10.0 mi NNE 18.4 mph - N/A   Overcast
8:16 PM 33.8 °F 23.2 °F 28.4 °F 81% 29.46 in 10.0 mi NNE 17.3 mph - N/A   Overcast
8:36 PM 33.8 °F 22.5 °F 28.4 °F 81% 29.45 in 10.0 mi NNE 19.6 mph - N/A   Overcast
8:56 PM 33.8 °F 22.8 °F 28.4 °F 81% 29.45 in 10.0 mi NNE 18.4 mph - N/A   Overcast
9:16 PM 33.8 °F 21.9 °F 28.4 °F 81% 29.45 in 10.0 mi NNE 21.9 mph - N/A   Overcast
9:36 PM 33.8 °F 22.2 °F 28.4 °F 81% 29.44 in 10.0 mi NNE 20.7 mph - N/A   Overcast
9:56 PM 33.8 °F 21.6 °F 28.4 °F 81% 29.44 in 10.0 mi NNE 23.0 mph - N/A   Overcast
10:16 PM 33.8 °F 21.0 °F 28.4 °F 81% 29.43 in 10.0 mi NNE 25.3 mph - N/A   Overcast
10:36 PM 33.8 °F 21.3 °F 26.6 °F 75% 29.43 in 10.0 mi NNE 24.2 mph - N/A   Mostly Cloudy
10:56 PM 33.8 °F 21.9 °F 26.6 °F 75% 29.43 in 10.0 mi NNE 21.9 mph - N/A   Mostly Cloudy
11:16 PM 33.8 °F 21.6 °F 28.4 °F 81% 29.43 in 10.0 mi NNE 23.0 mph - N/A   Overcast
11:36 PM 33.8 °F 21.0 °F 26.6 °F 75% 29.43 in 10.0 mi NNE 25.3 mph - N/A   Overcast